Time;durP1;ratioP1;P1;durP2;ratioP2;P2;SDS_P1;SDS_P2;PMS_P1;PMS_P2;Temp;Humidity;BMP_temperature;BMP_pressure;BME280_temperature;BME280_humidity;BME280_pressure;Samples;Min_cycle;Max_cycle;Signal;HPM_P1;HPM_P2
2021/12/23 00:00:11;;;;;;;74.65;39.17;;;;;;;3.54;59.59;101433.25;4923087;28;121898;-85
2021/12/23 00:02:38;;;;;;;79.35;40.05;;;;;;;3.82;59.90;101475.97;4943501;28;120387;-89
2021/12/23 00:05:05;;;;;;;70.95;36.92;;;;;;;3.37;59.87;101404.16;4947961;28;119501;-87
2021/12/23 00:07:38;;;;;;;79.93;37.80;;;;;;;3.43;59.72;101413.47;4943981;28;120264;-88
2021/12/23 00:10:07;;;;;;;76.13;39.22;;;;;;;3.67;59.94;101436.41;4943948;28;119500;-86
2021/12/23 00:12:56;;;;;;;78.07;39.72;;;;;;;3.20;59.89;101358.78;4930021;28;120236;-87
2021/12/23 00:15:49;;;;;;;;;;;;;;;;;;;;;
2021/12/23 00:23:44;;;;;;;76.68;37.15;;;;;;;3.21;60.05;101373.88;4927823;28;122667;-87
2021/12/23 00:26:22;;;;;;;;;;;;;;;;;;;;;
2021/12/23 00:29:26;;;;;;;;;;;;;;;;;;;;;
2021/12/23 00:32:12;;;;;;;76.80;37.88;;;;;;;3.21;59.89;101338.63;4942594;28;121273;-85
2021/12/23 00:34:48;;;;;;;76.35;39.45;;;;;;;3.16;59.66;101339.03;4925244;28;122399;-86
2021/12/23 00:37:16;;;;;;;74.40;38.80;;;;;;;3.53;60.16;101401.09;4943088;28;119386;-88
2021/12/23 00:39:45;;;;;;;79.60;39.92;;;;;;;3.45;60.03;101373.19;4925627;28;119679;-88
2021/12/23 00:42:22;;;;;;;76.95;39.47;;;;;;;3.43;59.96;101364.66;4959716;28;121144;-85
2021/12/23 00:44:51;;;;;;;78.97;40.28;;;;;;;3.22;59.53;101334.75;4924586;28;122667;-81
2021/12/23 00:47:19;;;;;;;73.65;38.90;;;;;;;3.60;59.96;101374.00;4912397;28;121053;-87
2021/12/23 00:50:06;;;;;;;73.93;39.65;;;;;;;3.28;59.58;101330.50;4942801;28;120888;-84
2021/12/23 00:52:42;;;;;;;73.70;37.05;;;;;;;3.37;59.46;101336.38;4945436;28;119538;-89
2021/12/23 00:55:11;;;;;;;75.35;38.63;;;;;;;3.41;59.55;101339.84;4947385;28;121769;-83
2021/12/23 00:57:41;;;;;;;71.63;36.33;;;;;;;3.50;59.60;101332.09;4956365;28;122699;-89
2021/12/23 01:00:18;;;;;;;;;;;;;;;3.85;59.75;101374.00;4943279;28;119570;-90
2021/12/23 01:02:59;;;;;;;72.35;36.67;;;;;;;3.59;59.50;101351.50;4937403;28;121734;-85
2021/12/23 01:05:32;;;;;;;74.55;38.47;;;;;;;3.57;59.63;101340.28;4913865;28;123220;-86
2021/12/23 01:08:00;;;;;;;75.68;38.17;;;;;;;3.51;59.77;101322.81;4944505;28;120571;-89
2021/12/23 01:10:29;;;;;;;70.22;38.17;;;;;;;3.65;59.71;101349.97;4960502;28;119726;-88
2021/12/23 01:13:02;;;;;;;68.25;36.70;;;;;;;3.55;59.58;101333.66;4942833;28;122812;-87
2021/12/23 01:18:10;;;;;;;70.68;37.40;;;;;;;3.77;59.80;101358.88;4943481;28;122301;-89
2021/12/23 01:20:50;;;;;;;69.15;37.08;;;;;;;3.35;59.50;101287.16;4960567;28;120980;-85
2021/12/23 01:23:40;;;;;;;72.65;36.33;;;;;;;3.32;59.75;101261.59;4933501;28;120234;-87
2021/12/23 01:26:19;;;;;;;71.82;35.30;;;;;;;3.38;59.59;101270.88;4909909;28;121917;-83
2021/12/23 01:29:07;;;;;;;73.07;37.42;;;;;;;3.49;59.49;101278.25;4960182;28;119799;-88
2021/12/23 01:31:52;;;;;;;68.20;36.17;;;;;;;3.50;59.56;101280.56;4933908;28;119554;-89
2021/12/23 01:34:20;;;;;;;70.70;37.85;;;;;;;3.61;59.18;101299.59;4942201;28;122598;-85
2021/12/23 01:36:49;;;;;;;69.75;36.47;;;;;;;3.78;59.32;101352.28;4960994;28;120409;-82
2021/12/23 01:39:14;;;;;;;69.63;36.40;;;;;;;3.53;59.57;101287.94;4945257;28;122109;-84
2021/12/23 01:41:45;;;;;;;71.53;37.08;;;;;;;3.54;59.51;101289.47;4923215;28;119865;-86
2021/12/23 01:44:11;;;;;;;66.53;36.15;;;;;;;3.74;59.34;101317.00;4943823;28;122453;-86
2021/12/23 01:46:41;;;;;;;71.80;36.50;;;;;;;3.69;59.11;101301.13;4944775;28;123098;-84
2021/12/23 01:49:12;;;;;;;65.43;36.70;;;;;;;3.81;59.35;101322.47;4959869;28;119584;-84
2021/12/23 01:51:40;;;;;;;65.30;36.38;;;;;;;3.56;59.34;101283.69;4928005;28;121625;-81
2021/12/23 01:54:06;;;;;;;69.22;36.90;;;;;;;3.60;59.35;101279.03;4943471;28;122893;-84
2021/12/23 01:56:37;;;;;;;65.07;34.80;;;;;;;3.56;59.56;101265.47;4940859;28;119335;-86
2021/12/23 01:59:03;;;;;;;59.53;35.17;;;;;;;3.51;59.79;101236.00;4945188;28;119829;-82
2021/12/23 02:01:41;;;;;;;63.58;35.80;;;;;;;3.41;59.91;101209.69;4962937;28;122729;-88
2021/12/23 02:04:07;;;;;;;67.60;36.90;;;;;;;3.67;59.44;101244.53;4929669;28;121841;-84
2021/12/23 02:06:53;;;;;;;66.80;34.92;;;;;;;3.96;59.48;101272.41;4918979;28;120032;-84
2021/12/23 02:09:39;;;;;;;65.90;34.78;;;;;;;3.61;59.19;101213.53;4934327;28;120320;-83
2021/12/23 02:12:28;;;;;;;64.65;36.42;;;;;;;3.39;59.72;101174.03;4940153;28;122200;-89
2021/12/23 02:14:56;;;;;;;66.05;36.42;;;;;;;3.75;59.41;101230.94;4944906;28;122979;-87
2021/12/23 02:17:24;;;;;;;65.35;36.03;;;;;;;3.85;59.74;101222.81;4932272;28;119631;-89
2021/12/23 02:19:54;;;;;;;67.88;35.67;;;;;;;4.08;60.04;101251.47;4947893;28;119821;-88
2021/12/23 02:22:23;;;;;;;65.57;35.08;;;;;;;4.02;59.98;101242.91;4953172;28;120954;-89
2021/12/23 02:24:48;;;;;;;68.30;35.83;;;;;;;3.90;59.43;101224.34;4949372;28;119586;-87
2021/12/23 02:27:16;;;;;;;68.45;36.85;;;;;;;4.04;59.25;101248.75;4933399;28;123234;-87
2021/12/23 02:29:41;;;;;;;68.85;36.30;;;;;;;3.79;59.43;101220.88;4948062;28;119598;-88
2021/12/23 02:32:08;;;;;;;63.42;37.33;;;;;;;3.95;59.57;101249.16;4913248;28;122664;-83
2021/12/23 02:34:33;;;;;;;75.70;37.38;;;;;;;3.96;60.20;101239.06;4932829;28;123523;-88
2021/12/23 02:37:00;;;;;;;65.88;35.53;;;;;;;4.05;60.30;101247.59;4946641;28;119669;-87
2021/12/23 02:39:27;;;;;;;68.60;37.97;;;;;;;4.06;60.04;101241.00;4947115;28;121965;-87
2021/12/23 02:41:54;;;;;;;65.95;36.75;;;;;;;3.69;59.55;101174.38;4930706;28;123196;-86
2021/12/23 02:44:20;;;;;;;71.60;37.50;;;;;;;3.89;59.75;101201.84;4966059;28;119916;-84
2021/12/23 02:46:45;;;;;;;66.82;38.00;;;;;;;4.07;59.81;101223.53;4964712;28;121641;-86
2021/12/23 02:49:11;;;;;;;64.00;37.05;;;;;;;3.75;59.62;101171.25;4963423;28;120836;-86
2021/12/23 02:51:40;;;;;;;65.50;36.53;;;;;;;3.92;59.54;101187.50;4948324;28;120451;-84
2021/12/23 02:54:08;;;;;;;67.70;38.63;;;;;;;4.10;60.04;101205.69;4913914;28;123593;-86
2021/12/23 02:56:34;;;;;;;68.05;38.08;;;;;;;3.76;59.86;101135.59;4947843;28;119780;-87
2021/12/23 02:59:02;;;;;;;70.38;40.22;;;;;;;4.01;59.94;101158.00;4960297;28;121914;-88
2021/12/23 03:01:28;;;;;;;68.05;38.33;;;;;;;3.92;59.94;101135.16;4963555;28;120203;-87
2021/12/23 03:03:54;;;;;;;63.75;37.40;;;;;;;4.16;60.06;101174.25;4935970;28;120358;-83
2021/12/23 03:06:21;;;;;;;67.53;38.60;;;;;;;3.90;60.34;101132.06;4968649;28;119610;-86
2021/12/23 03:08:50;;;;;;;64.55;37.20;;;;;;;4.17;60.07;101173.06;4947799;28;119756;-79
2021/12/23 03:11:18;;;;;;;64.47;37.40;;;;;;;4.01;59.60;101140.94;4948444;28;120516;-84
2021/12/23 03:13:44;;;;;;;67.00;38.22;;;;;;;4.09;59.99;101130.84;4946932;28;123122;-83
2021/12/23 03:16:17;;;;;;;65.47;38.00;;;;;;;4.19;60.29;101128.06;4930267;28;119611;-86
2021/12/23 03:18:43;;;;;;;67.73;38.80;;;;;;;4.13;60.13;101118.03;4964796;28;119354;-87
2021/12/23 03:21:09;;;;;;;65.57;37.58;;;;;;;4.15;59.85;101107.53;4914512;28;123202;-88
2021/12/23 03:23:35;;;;;;;63.67;37.58;;;;;;;4.29;59.81;101124.53;4963641;28;119789;-87
2021/12/23 03:26:02;;;;;;;60.90;37.10;;;;;;;4.09;59.50;101101.75;4948358;28;121290;-86
2021/12/23 03:28:28;;;;;;;63.33;37.30;;;;;;;4.11;60.06;101093.97;4950805;28;120074;-84
2021/12/23 03:30:53;;;;;;;59.42;37.72;;;;;;;4.31;59.78;101108.63;4947071;28;122316;-89
2021/12/23 03:33:19;;;;;;;66.32;38.17;;;;;;;3.90;59.91;101045.22;4930941;28;121942;-86
2021/12/23 03:35:48;;;;;;;63.63;37.15;;;;;;;3.95;59.53;101047.50;4949711;28;119612;-84
2021/12/23 03:38:14;;;;;;;64.63;37.45;;;;;;;4.24;59.59;101078.75;4944867;28;120284;-88
2021/12/23 03:40:41;;;;;;;66.45;39.80;;;;;;;4.44;59.99;101105.44;4931062;28;122269;-87
2021/12/23 03:43:14;;;;;;;63.25;37.63;;;;;;;4.42;59.69;101097.69;4932653;28;121474;-87
2021/12/23 03:45:47;;;;;;;65.53;37.30;;;;;;;4.39;59.68;101086.84;4947460;28;121799;-87
2021/12/23 03:48:17;;;;;;;60.43;37.97;;;;;;;3.86;59.75;101004.53;4945454;28;122817;-84
2021/12/23 03:50:52;;;;;;;60.53;36.35;;;;;;;4.06;59.48;101023.81;4937328;28;120057;-81
2021/12/23 03:53:28;;;;;;;59.80;36.08;;;;;;;3.93;59.00;100998.28;4946553;28;123355;-84
2021/12/23 03:55:54;;;;;;;59.78;36.58;;;;;;;4.25;59.37;101045.00;4945869;28;121208;-84
2021/12/23 03:58:23;;;;;;;61.58;36.08;;;;;;;4.49;59.82;101061.53;4949625;28;119577;-87
2021/12/23 04:00:50;;;;;;;61.72;36.13;;;;;;;3.96;59.20;100973.06;4946404;28;119749;-86
2021/12/23 04:03:15;;;;;;;59.67;36.10;;;;;;;4.42;59.54;101027.06;4946756;28;119508;-84
2021/12/23 04:05:41;;;;;;;58.20;35.08;;;;;;;4.53;59.36;101051.44;4930840;28;120062;-87
2021/12/23 04:08:07;;;;;;;62.42;37.33;;;;;;;4.40;59.31;101023.19;4961223;28;120352;-83
2021/12/23 04:10:33;;;;;;;60.20;35.45;;;;;;;4.52;58.93;101042.53;4946478;28;119946;-84
2021/12/23 04:12:59;;;;;;;59.65;36.53;;;;;;;4.32;59.22;101012.41;4935193;28;122919;-85
2021/12/23 04:15:25;;;;;;;57.97;34.95;;;;;;;4.38;59.29;101011.97;4930617;28;119610;-86
2021/12/23 04:17:50;;;;;;;56.83;34.70;;;;;;;4.38;59.04;100998.38;4949664;28;119905;-82
2021/12/23 04:20:20;;;;;;;58.10;34.88;;;;;;;4.55;59.08;101019.97;4946968;28;120298;-88
2021/12/23 04:22:48;;;;;;;57.38;34.97;;;;;;;4.45;58.67;101015.38;4960735;28;119498;-86
2021/12/23 04:25:15;;;;;;;58.95;35.85;;;;;;;4.48;58.79;101005.66;4944308;28;120758;-86
2021/12/23 04:27:43;;;;;;;57.53;34.72;;;;;;;4.52;59.38;101009.91;4947061;28;119945;-85
2021/12/23 04:30:11;;;;;;;56.65;34.45;;;;;;;4.55;59.14;101008.34;4946139;28;120941;-85
2021/12/23 04:32:37;;;;;;;58.25;34.53;;;;;;;4.43;58.53;100989.81;4931080;28;121888;-86
2021/12/23 04:35:03;;;;;;;60.53;35.65;;;;;;;4.50;58.75;101000.63;4928282;28;119398;-83
2021/12/23 04:37:29;;;;;;;57.83;36.33;;;;;;;4.43;58.67;100984.38;4944467;28;122082;-82
2021/12/23 04:39:55;;;;;;;57.50;34.63;;;;;;;4.26;58.54;100967.84;4943015;28;119865;-88
2021/12/23 04:42:23;;;;;;;57.42;34.38;;;;;;;4.44;58.61;100994.06;4945310;28;120221;-89
2021/12/23 04:44:48;;;;;;;57.33;34.30;;;;;;;4.10;58.42;100945.84;4929571;28;121800;-88
2021/12/23 04:47:16;;;;;;;56.80;34.05;;;;;;;4.44;58.88;100996.78;4944740;28;119955;-85
2021/12/23 04:49:44;;;;;;;56.10;34.50;;;;;;;4.38;59.04;100979.38;4929509;28;120311;-87
2021/12/23 04:52:10;;;;;;;56.80;34.88;;;;;;;4.39;59.37;100970.06;4963270;28;119573;-85
2021/12/23 04:54:38;;;;;;;56.17;34.38;;;;;;;4.42;58.71;100974.69;4932434;28;123031;-88
2021/12/23 04:57:04;;;;;;;59.92;34.83;;;;;;;4.41;59.04;100965.75;4942448;28;121149;-88
2021/12/23 04:59:29;;;;;;;57.97;34.60;;;;;;;4.48;58.96;100973.84;4944828;28;123483;-88
2021/12/23 05:01:55;;;;;;;58.35;35.33;;;;;;;4.43;59.13;100962.63;4928238;28;120013;-82
2021/12/23 05:04:23;;;;;;;62.05;35.58;;;;;;;4.42;58.70;100961.88;4944141;28;122225;-88
2021/12/23 05:06:49;;;;;;;57.15;35.17;;;;;;;4.38;58.76;100942.13;4946105;28;122631;-87
2021/12/23 05:09:15;;;;;;;54.63;32.97;;;;;;;4.49;59.14;100948.22;4929989;28;119812;-86
2021/12/23 05:11:40;;;;;;;59.05;35.72;;;;;;;4.53;58.85;100943.53;4930288;28;122022;-88
2021/12/23 05:14:06;;;;;;;57.38;35.70;;;;;;;4.51;59.06;100934.25;4914678;28;123112;-87
2021/12/23 05:16:32;;;;;;;56.88;34.78;;;;;;;4.52;58.73;100933.09;4916581;28;119767;-88
2021/12/23 05:18:57;;;;;;;56.13;34.63;;;;;;;4.43;58.50;100898.22;4929979;28;123189;-86
2021/12/23 05:21:23;;;;;;;58.78;34.28;;;;;;;4.42;58.68;100904.06;4927189;28;121259;-86
2021/12/23 05:23:49;;;;;;;55.90;35.13;;;;;;;4.56;58.81;100912.09;4944619;28;122858;-87
2021/12/23 05:26:14;;;;;;;55.97;35.22;;;;;;;4.53;58.74;100907.47;4945617;28;120251;-85
2021/12/23 05:28:40;;;;;;;61.65;36.53;;;;;;;4.44;59.32;100897.03;4914575;28;121413;-88
2021/12/23 05:31:06;;;;;;;57.80;34.85;;;;;;;4.07;59.20;100831.84;4945756;28;120010;-88
2021/12/23 05:33:34;;;;;;;59.13;35.53;;;;;;;4.49;58.98;100884.97;4959174;28;120152;-86
2021/12/23 05:36:04;;;;;;;56.03;34.45;;;;;;;4.34;59.07;100843.63;4946579;28;120014;-84
2021/12/23 05:38:30;;;;;;;55.60;34.15;;;;;;;4.40;59.08;100838.50;4947019;28;121592;-85
2021/12/23 05:40:59;;;;;;;61.38;35.78;;;;;;;4.47;58.76;100847.34;4929615;28;119422;-87
2021/12/23 05:43:24;;;;;;;56.30;33.58;;;;;;;4.21;58.94;100810.75;4948154;28;122894;-87
2021/12/23 05:45:50;;;;;;;58.28;34.83;;;;;;;4.55;59.02;100858.94;4948679;28;123204;-84
2021/12/23 05:48:16;;;;;;;54.58;33.85;;;;;;;4.22;59.15;100800.66;4948588;28;119622;-89
2021/12/23 05:50:44;;;;;;;56.80;34.33;;;;;;;4.50;58.91;100832.22;4949819;28;121292;-84
2021/12/23 05:53:13;;;;;;;57.72;35.05;;;;;;;4.53;58.67;100837.59;4948927;28;123503;-85
2021/12/23 05:55:38;;;;;;;54.03;33.35;;;;;;;4.49;58.99;100838.78;4948767;28;119778;-84
2021/12/23 05:58:04;;;;;;;55.97;33.85;;;;;;;4.50;58.67;100838.41;4966309;28;123063;-85
2021/12/23 06:00:32;;;;;;;56.72;34.33;;;;;;;4.27;58.58;100798.31;4952327;28;122982;-90
2021/12/23 06:03:02;;;;;;;52.95;32.65;;;;;;;4.40;58.85;100816.78;4932510;28;122173;-85
2021/12/23 06:05:28;;;;;;;57.15;33.88;;;;;;;4.35;58.68;100795.50;4965091;28;123192;-81
2021/12/23 06:07:53;;;;;;;53.67;33.45;;;;;;;4.29;58.49;100798.66;4917047;28;119735;-86
2021/12/23 06:10:24;;;;;;;51.47;32.65;;;;;;;4.37;58.45;100802.06;4940617;28;120403;-88
2021/12/23 06:12:52;;;;;;;51.13;33.42;;;;;;;4.18;58.25;100773.56;4965906;28;120933;-88
2021/12/23 06:15:18;;;;;;;51.92;32.28;;;;;;;4.31;58.19;100782.75;4932861;28;119636;-87
2021/12/23 06:17:46;;;;;;;51.95;32.45;;;;;;;4.45;57.96;100811.66;4947742;28;121498;-89
2021/12/23 06:20:13;;;;;;;54.00;33.85;;;;;;;4.45;58.24;100808.19;4948492;28;122674;-86
2021/12/23 06:22:39;;;;;;;51.72;33.03;;;;;;;4.55;58.41;100808.09;4935938;28;119357;-84
2021/12/23 06:25:07;;;;;;;52.80;32.75;;;;;;;4.59;57.97;100811.53;4947344;28;123527;-85
2021/12/23 06:27:34;;;;;;;53.08;32.75;;;;;;;4.53;58.22;100796.09;4932630;28;119583;-82
2021/12/23 06:29:59;;;;;;;53.42;32.72;;;;;;;4.51;58.73;100798.44;4916617;28;122048;-87
2021/12/23 06:32:25;;;;;;;55.70;33.65;;;;;;;4.49;58.58;100776.31;4949131;28;119960;-84
2021/12/23 06:34:51;;;;;;;52.97;32.28;;;;;;;4.15;58.74;100730.16;4949201;28;119627;-84
2021/12/23 06:37:17;;;;;;;51.17;32.30;;;;;;;4.54;58.91;100784.03;4949193;28;122217;-86
2021/12/23 06:39:44;;;;;;;51.60;33.00;;;;;;;4.57;58.79;100783.22;4946320;28;122954;-84
2021/12/23 06:42:10;;;;;;;49.92;31.02;;;;;;;4.53;58.84;100783.28;4950815;28;119796;-83
2021/12/23 06:44:35;;;;;;;56.45;34.13;;;;;;;4.70;58.59;100797.81;4931759;28;122829;-85
2021/12/23 06:47:01;;;;;;;49.78;32.53;;;;;;;4.60;58.52;100776.97;4931529;28;119844;-83
2021/12/23 06:49:31;;;;;;;50.42;31.45;;;;;;;4.55;58.56;100761.91;4933192;28;121226;-83
2021/12/23 06:51:57;;;;;;;50.08;31.85;;;;;;;4.66;58.74;100772.63;4963659;28;120378;-85
2021/12/23 06:54:22;;;;;;;52.75;33.50;;;;;;;4.70;58.53;100778.78;4947208;28;120657;-87
2021/12/23 06:56:49;;;;;;;49.97;31.48;;;;;;;4.78;58.35;100782.97;4948923;28;121942;-82
2021/12/23 06:59:17;;;;;;;52.05;31.10;;;;;;;4.76;57.91;100765.53;4947557;28;122420;-86
2021/12/23 07:01:47;;;;;;;48.53;32.15;;;;;;;4.74;57.81;100757.78;4946888;28;121629;-86
2021/12/23 07:04:15;;;;;;;51.92;31.80;;;;;;;4.74;57.96;100760.50;4951002;28;122682;-87
2021/12/23 07:06:47;;;;;;;48.92;31.90;;;;;;;4.71;58.25;100752.38;4965522;28;119921;-88
2021/12/23 07:09:14;;;;;;;51.75;30.27;;;;;;;4.77;58.52;100764.34;4947277;28;122898;-88
2021/12/23 07:11:40;;;;;;;51.80;32.00;;;;;;;4.77;58.39;100767.84;4948964;28;119465;-89
2021/12/23 07:14:06;;;;;;;52.95;31.02;;;;;;;4.37;58.38;100700.81;4948908;28;119415;-87
2021/12/23 07:16:32;;;;;;;51.83;30.75;;;;;;;4.60;58.01;100728.06;4932602;28;122231;-90
2021/12/23 07:18:57;;;;;;;48.75;31.98;;;;;;;4.70;58.26;100750.84;4949452;28;120339;-86
2021/12/23 07:21:23;;;;;;;49.65;31.17;;;;;;;4.70;58.01;100745.41;4925711;28;121103;-86
2021/12/23 07:23:49;;;;;;;51.28;31.33;;;;;;;4.76;57.81;100754.66;4947696;28;122368;-84
2021/12/23 07:26:17;;;;;;;49.03;30.60;;;;;;;4.82;58.17;100764.66;4951387;28;123259;-86
2021/12/23 07:28:43;;;;;;;51.67;31.38;;;;;;;4.72;58.43;100735.66;4948720;28;122335;-85
2021/12/23 07:31:09;;;;;;;48.83;30.13;;;;;;;4.77;58.39;100731.75;4963814;28;120209;-88
2021/12/23 07:33:35;;;;;;;48.03;30.85;;;;;;;4.57;58.11;100701.72;4958039;28;119879;-89
2021/12/23 07:36:04;;;;;;;46.80;30.80;;;;;;;4.97;58.69;100740.00;4933747;28;119576;-87
2021/12/23 07:38:31;;;;;;;48.80;31.50;;;;;;;4.88;58.84;100719.53;4945787;28;123062;-89
2021/12/23 07:40:59;;;;;;;54.20;32.95;;;;;;;4.91;59.19;100715.22;4931799;28;119685;-89
2021/12/23 07:45:59;;;;;;;;;;;;;;;5.07;59.92;100715.38;4947139;28;122974;-85
2021/12/23 07:48:25;;;;;;;54.03;33.40;;;;;;;5.06;60.30;100704.91;4947575;28;120632;-83
2021/12/23 07:50:53;;;;;;;55.40;33.90;;;;;;;4.83;60.13;100673.03;4933605;28;122406;-85
2021/12/23 07:53:22;;;;;;;55.40;34.95;;;;;;;5.17;60.75;100728.03;4947411;28;119556;-81
2021/12/23 07:55:48;;;;;;;55.47;35.17;;;;;;;5.08;61.15;100697.13;4962876;28;120284;-86
2021/12/23 07:58:16;;;;;;;53.20;34.90;;;;;;;4.79;61.12;100640.47;4948217;28;121155;-87
2021/12/23 08:00:45;;;;;;;51.47;34.28;;;;;;;4.77;61.20;100620.31;4945486;28;119858;-89
2021/12/23 08:03:14;;;;;;;54.10;33.25;;;;;;;5.10;60.81;100668.34;4962510;28;120732;-90
2021/12/23 08:05:41;;;;;;;48.20;33.63;;;;;;;4.98;60.51;100660.78;4948464;28;119890;-89
2021/12/23 08:08:27;;;;;;;54.05;36.15;;;;;;;5.30;61.04;100703.00;4922220;28;119347;-84
2021/12/23 08:10:56;;;;;;;52.17;34.58;;;;;;;4.75;61.36;100619.97;4964837;28;119425;-87
2021/12/23 08:13:25;;;;;;;52.60;34.85;;;;;;;4.94;60.92;100646.44;4947701;28;119656;-87
2021/12/23 08:15:53;;;;;;;48.60;32.78;;;;;;;5.05;60.43;100660.66;4946355;28;121987;-87
2021/12/23 08:18:40;;;;;;;48.80;34.03;;;;;;;4.80;60.58;100609.41;4942939;28;120798;-86
2021/12/23 08:21:08;;;;;;;51.78;34.53;;;;;;;4.98;60.63;100630.09;4946005;28;119875;-90
2021/12/23 08:23:34;;;;;;;49.70;33.22;;;;;;;5.22;60.91;100669.72;4913292;28;122421;-90
2021/12/23 08:26:03;;;;;;;48.08;32.38;;;;;;;5.29;60.82;100680.47;4930144;28;123054;-89
2021/12/23 08:28:29;;;;;;;50.45;33.92;;;;;;;5.04;61.24;100655.63;4946772;28;119485;-84
2021/12/23 08:30:56;;;;;;;47.17;33.10;;;;;;;5.13;60.13;100680.34;4933356;28;121442;-88
2021/12/23 08:33:22;;;;;;;50.63;32.33;;;;;;;4.97;60.55;100680.97;4961885;28;119835;-89
2021/12/23 08:35:48;;;;;;;46.42;31.35;;;;;;;5.21;60.54;100719.84;4944003;28;120803;-89
2021/12/23 08:38:13;;;;;;;49.38;33.70;;;;;;;5.20;60.83;100708.19;4947066;28;120199;-88
2021/12/23 08:40:39;;;;;;;55.97;32.70;;;;;;;4.90;60.81;100659.31;4943017;28;120609;-86
2021/12/23 08:43:04;;;;;;;53.53;31.73;;;;;;;4.89;60.83;100636.03;4962212;28;119662;-87
2021/12/23 08:45:32;;;;;;;48.58;30.75;;;;;;;5.26;60.77;100708.50;4946217;28;122787;-90
2021/12/23 08:47:58;;;;;;;51.47;33.03;;;;;;;5.31;61.01;100710.75;4945869;28;121786;-86
2021/12/23 08:50:25;;;;;;;51.97;33.72;;;;;;;5.28;60.52;100711.56;4946215;28;120845;-84
2021/12/23 08:52:52;;;;;;;53.85;34.40;;;;;;;5.31;61.36;100702.59;4959063;28;120309;-89
2021/12/23 08:55:19;;;;;;;54.13;34.40;;;;;;;5.30;61.50;100692.13;4949785;28;122907;-85
2021/12/23 08:57:45;;;;;;;49.33;32.05;;;;;;;5.24;60.89;100678.22;4961590;28;119974;-87
2021/12/23 09:00:14;;;;;;;52.42;34.33;;;;;;;5.36;60.99;100669.47;4947058;28;119669;-85
2021/12/23 09:02:40;;;;;;;52.03;34.08;;;;;;;5.42;60.96;100659.63;4963191;28;119347;-84
2021/12/23 09:05:07;;;;;;;54.60;33.30;;;;;;;5.37;60.88;100648.47;4913360;28;122236;-90
2021/12/23 09:07:32;;;;;;;52.65;30.25;;;;;;;5.36;60.73;100642.25;4931607;28;119671;-86
2021/12/23 09:09:58;;;;;;;51.97;33.92;;;;;;;5.31;60.93;100639.25;4913386;28;121929;-88
2021/12/23 09:12:24;;;;;;;47.45;33.20;;;;;;;5.33;60.91;100662.13;4928468;28;123045;-89
2021/12/23 09:14:50;;;;;;;50.50;33.15;;;;;;;5.38;60.49;100661.66;4932702;28;119743;-90
2021/12/23 09:17:16;;;;;;;51.15;33.38;;;;;;;5.31;61.18;100633.81;4945650;28;122598;-89
2021/12/23 09:19:43;;;;;;;49.05;32.33;;;;;;;5.38;60.75;100642.63;4949069;28;121092;-89
2021/12/23 09:22:09;;;;;;;51.22;33.55;;;;;;;5.34;60.18;100644.63;4966112;28;119601;-85
2021/12/23 09:24:37;;;;;;;47.88;31.08;;;;;;;5.34;60.11;100639.19;4961072;28;120368;-83
2021/12/23 09:27:50;;;;;;;51.75;33.53;;;;;;;5.55;60.73;100663.31;4950739;28;119604;-84
2021/12/23 09:32:51;;;;;;;48.15;32.38;;;;;;;5.55;60.19;100644.25;4951498;28;123093;-84
2021/12/23 09:35:19;;;;;;;49.55;32.60;;;;;;;5.52;60.51;100626.06;4948458;28;119686;-89
2021/12/23 09:37:45;;;;;;;48.85;32.40;;;;;;;5.47;60.68;100618.38;4935870;28;121391;-86
2021/12/23 09:40:11;;;;;;;50.33;32.80;;;;;;;5.35;60.50;100591.78;4951009;28;119616;-86
2021/12/23 09:42:37;;;;;;;52.90;33.33;;;;;;;5.25;60.73;100562.81;4928953;28;121959;-86
2021/12/23 09:45:10;;;;;;;52.25;33.75;;;;;;;5.68;60.42;100624.59;4928842;28;123094;-82
2021/12/23 09:47:36;;;;;;;48.88;33.42;;;;;;;5.27;59.82;100544.13;4941361;28;119657;-83
2021/12/23 09:50:07;;;;;;;51.75;34.60;;;;;;;5.63;60.43;100579.59;4945219;28;119823;-88
2021/12/23 09:52:38;;;;;;;52.75;34.30;;;;;;;5.66;60.49;100583.41;4949030;28;120106;-88
2021/12/23 09:55:05;;;;;;;52.25;32.85;;;;;;;5.72;60.41;100574.38;4927734;28;120601;-90
2021/12/23 09:57:31;;;;;;;48.80;32.67;;;;;;;5.62;60.22;100552.78;4945451;28;122723;-87
2021/12/23 09:59:58;;;;;;;46.25;30.92;;;;;;;5.70;60.06;100554.19;4948064;28;120239;-84
2021/12/23 10:02:24;;;;;;;45.47;30.67;;;;;;;5.55;59.83;100540.88;4928622;28;121636;-89
2021/12/23 10:04:50;;;;;;;43.17;30.42;;;;;;;5.74;60.01;100574.72;4962605;28;121024;-92
2021/12/23 10:07:15;;;;;;;47.50;32.30;;;;;;;5.71;60.29;100559.22;4960647;28;120737;-89
2021/12/23 10:09:57;;;;;;;;;;;;;;;;;;;;;
2021/12/23 10:30:10;;;;;;;47.60;30.35;;;;;;;5.73;60.30;100517.97;4930231;28;119764;-82
2021/12/23 10:31:59;;;;;;;48.38;30.90;;;;;;;5.77;60.28;100486.00;4959026;28;119429;-88
2021/12/23 10:37:20;;;;;;;45.38;30.30;;;;;;;5.79;59.39;100473.50;4930147;28;120769;-82
2021/12/23 10:40:10;;;;;;;45.20;30.63;;;;;;;5.34;59.78;100397.13;4959446;28;120252;-80
2021/12/23 10:42:35;;;;;;;47.15;30.55;;;;;;;5.76;59.30;100463.47;4934445;28;121914;-84
2021/12/23 10:45:10;;;;;;;47.13;30.90;;;;;;;5.61;60.02;100420.66;4960875;28;119651;-79
2021/12/23 10:47:53;;;;;;;47.55;31.17;;;;;;;5.81;60.39;100449.34;4936090;28;122968;-83
2021/12/23 10:50:30;;;;;;;48.53;28.85;;;;;;;5.84;59.95;100447.75;4945163;28;121062;-85
2021/12/23 10:53:12;;;;;;;47.30;28.95;;;;;;;5.84;59.46;100442.28;4956132;28;121808;-89
2021/12/23 10:58:25;;;;;;;50.33;30.98;;;;;;;5.85;59.66;100409.22;4939212;28;120545;-91
2021/12/23 11:00:54;;;;;;;48.70;30.45;;;;;;;5.68;59.97;100382.38;4974024;28;121461;-79
2021/12/23 11:03:40;;;;;;;46.95;30.08;;;;;;;5.72;59.47;100392.03;4933631;28;122001;-82
2021/12/23 11:06:18;;;;;;;42.20;28.73;;;;;;;5.82;59.12;100407.34;4934088;28;120066;-84
2021/12/23 11:09:11;;;;;;;45.30;31.23;;;;;;;5.71;59.23;100389.72;4944798;28;119414;-84
2021/12/23 11:39:50;;;;;;;45.05;30.40;;;;;;;5.85;59.27;100373.81;4973516;28;121933;-83
2021/12/23 11:42:25;;;;;;;;;;;;;;;5.88;59.20;100352.38;4943630;28;119599;-81
2021/12/23 11:44:51;;;;;;;44.35;28.38;;;;;;;5.93;59.57;100347.25;4952703;28;125642;-82
2021/12/23 11:47:17;;;;;;;41.50;27.95;;;;;;;5.79;59.69;100320.34;4926688;28;121029;-82
2021/12/23 11:49:45;;;;;;;41.88;29.27;;;;;;;5.88;59.85;100334.09;4954526;28;119837;-89
2021/12/23 11:52:11;;;;;;;39.03;28.65;;;;;;;5.86;59.57;100331.81;4969445;28;122384;-82
2021/12/23 11:54:40;;;;;;;44.15;29.95;;;;;;;6.00;59.37;100338.91;4954416;28;123249;-85
2021/12/23 11:57:10;;;;;;;43.08;29.27;;;;;;;6.00;59.46;100338.13;4941017;28;121493;-89
2021/12/23 11:59:40;;;;;;;43.28;28.60;;;;;;;5.86;58.75;100323.63;4970968;28;120015;-90
2021/12/23 12:02:21;;;;;;;39.28;28.23;;;;;;;6.02;59.03;100322.13;4927326;28;121796;-90
2021/12/23 12:04:48;;;;;;;43.92;29.52;;;;;;;5.75;59.08;100270.66;4947576;28;119774;-89
2021/12/23 12:07:20;;;;;;;42.50;29.33;;;;;;;5.83;58.90;100267.34;4954905;28;121855;-90
2021/12/23 12:10:00;;;;;;;39.42;28.45;;;;;;;6.02;58.34;100289.47;4939521;28;121078;-82
2021/12/23 12:12:27;;;;;;;44.28;29.92;;;;;;;5.85;58.54;100254.06;4942724;28;120717;-91
2021/12/23 12:14:55;;;;;;;43.50;29.50;;;;;;;5.93;58.72;100271.03;4942449;28;120449;-89
2021/12/23 12:17:27;;;;;;;42.45;27.63;;;;;;;5.94;58.51;100275.28;4939464;28;122040;-84
2021/12/23 12:19:57;;;;;;;36.53;27.13;;;;;;;5.91;58.22;100273.38;4945481;28;122968;-87
2021/12/23 12:22:47;;;;;;;41.80;28.23;;;;;;;5.92;59.02;100258.59;4938875;28;120812;-80
2021/12/23 12:25:25;;;;;;;41.83;27.40;;;;;;;5.91;59.07;100231.78;4974282;28;123055;-91
2021/12/23 12:27:57;;;;;;;39.67;27.35;;;;;;;5.92;59.52;100225.94;4927679;28;120404;-88